Time;durP1;ratioP1;P1;durP2;ratioP2;P2;SDS_P1;SDS_P2;PMS_P1;PMS_P2;Temp;Humidity;BMP_temperature;BMP_pressure;BME280_temperature;BME280_humidity;BME280_pressure;Samples;Min_cycle;Max_cycle;Signal;HPM_P1;HPM_P2
2022/08/07 00:00:07;;;;;;;4.65;3.97;;;;;;;14.49;56.39;101988.78;847267;23;1262;-90
2022/08/07 00:00:33;;;;;;;5.03;4.20;;;;;;;14.53;56.28;102003.78;852007;23;1414;-90
2022/08/07 00:00:54;;;;;;;4.63;4.20;;;;;;;14.52;56.06;101998.50;851315;23;1196;-90
2022/08/07 00:01:19;;;;;;;4.13;3.83;;;;;;;14.53;56.19;101998.53;851223;23;1221;-90
2022/08/07 00:01:40;;;;;;;4.40;4.00;;;;;;;14.51;56.23;101997.59;847713;23;1257;-90
2022/08/07 00:02:01;;;;;;;4.43;4.03;;;;;;;14.52;56.22;102001.13;843594;23;1314;-90
2022/08/07 00:02:22;;;;;;;4.47;4.07;;;;;;;14.54;56.21;101999.44;835443;23;1184;-90
2022/08/07 00:02:43;;;;;;;3.95;3.60;;;;;;;14.48;56.41;101994.88;843650;23;1135;-90
2022/08/07 00:03:04;;;;;;;4.85;3.70;;;;;;;14.51;56.40;101997.59;843713;23;1345;-90
2022/08/07 00:03:27;;;;;;;6.32;3.72;;;;;;;14.47;56.43;101994.81;847863;23;1423;-90
2022/08/07 00:03:48;;;;;;;6.85;4.05;;;;;;;14.52;56.68;102002.00;855675;23;1351;-90
2022/08/07 00:04:09;;;;;;;7.40;3.90;;;;;;;14.51;56.72;102000.22;847530;23;1402;-90
2022/08/07 00:04:31;;;;;;;5.13;3.95;;;;;;;14.49;56.88;101996.66;839881;23;1154;-90
2022/08/07 00:04:52;;;;;;;4.60;4.00;;;;;;;14.47;56.94;101993.09;851745;23;1244;-90
2022/08/07 00:05:13;;;;;;;4.53;4.13;;;;;;;14.48;56.34;101989.63;855851;23;1221;-90
2022/08/07 00:05:34;;;;;;;4.07;3.78;;;;;;;14.50;56.77;101995.81;839090;23;1325;-90
2022/08/07 00:05:55;;;;;;;3.85;3.47;;;;;;;14.45;56.87;101997.41;847377;23;1308;-90
2022/08/07 00:06:16;;;;;;;4.90;3.30;;;;;;;14.50;56.71;102003.69;839330;23;1268;-90
2022/08/07 00:06:38;;;;;;;5.30;3.40;;;;;;;14.42;56.72;101994.69;851121;23;1293;-90
2022/08/07 00:06:59;;;;;;;4.93;3.42;;;;;;;14.48;56.73;102002.75;847546;23;1197;-90
2022/08/07 00:07:20;;;;;;;4.00;3.60;;;;;;;14.46;56.66;101998.31;836104;23;1236;-91
2022/08/07 00:07:42;;;;;;;3.90;3.60;;;;;;;14.44;56.75;101993.00;843671;23;1144;-90
2022/08/07 00:08:04;;;;;;;4.43;4.03;;;;;;;14.43;56.87;101991.22;847435;23;1361;-90
2022/08/07 00:08:25;;;;;;;4.50;4.10;;;;;;;14.45;57.11;102000.03;847910;23;1336;-90
2022/08/07 00:08:47;;;;;;;4.88;4.30;;;;;;;14.45;56.86;101994.78;855989;23;1188;-91
2022/08/07 00:09:08;;;;;;;4.40;4.00;;;;;;;14.47;57.02;101994.81;847642;23;1254;-90
2022/08/07 00:09:28;;;;;;;5.88;4.10;;;;;;;14.48;57.27;101999.22;839304;23;1154;-90
2022/08/07 00:09:49;;;;;;;5.30;3.88;;;;;;;14.51;57.26;102000.22;847315;23;1245;-90
2022/08/07 00:10:10;;;;;;;5.03;3.80;;;;;;;14.47;56.99;101995.72;847387;23;1354;-90
2022/08/07 00:10:31;;;;;;;3.90;3.60;;;;;;;14.53;56.78;101998.53;843679;23;1166;-90
2022/08/07 00:10:52;;;;;;;4.00;3.60;;;;;;;14.52;56.83;101998.50;843495;23;1244;-90
2022/08/07 00:11:13;;;;;;;4.10;3.60;;;;;;;14.47;56.73;101992.19;851094;23;1174;-90
2022/08/07 00:11:35;;;;;;;3.90;3.50;;;;;;;14.45;56.86;101992.13;851968;23;1224;-90
2022/08/07 00:11:56;;;;;;;4.30;3.50;;;;;;;14.46;56.79;101996.59;851873;23;1243;-90
2022/08/07 00:12:17;;;;;;;3.90;3.50;;;;;;;14.44;56.88;101995.63;843186;23;1276;-90
2022/08/07 00:12:39;;;;;;;3.88;3.50;;;;;;;14.49;56.65;102006.25;839828;23;1251;-90
2022/08/07 00:13:04;;;;;;;4.43;3.63;;;;;;;14.43;56.74;102000.84;846955;23;1375;-90
2022/08/07 00:13:25;;;;;;;5.05;3.78;;;;;;;14.40;56.85;101996.38;843771;23;1243;-90
2022/08/07 00:13:46;;;;;;;4.57;3.60;;;;;;;14.39;56.92;101989.34;852046;23;1222;-90
2022/08/07 00:14:07;;;;;;;4.00;3.60;;;;;;;14.41;56.79;101994.63;847547;23;1275;-90
2022/08/07 00:14:29;;;;;;;3.95;3.60;;;;;;;14.35;57.24;101988.34;839467;23;1239;-90
2022/08/07 00:14:50;;;;;;;4.20;3.80;;;;;;;14.41;57.23;101986.75;843838;23;1430;-90
2022/08/07 00:15:11;;;;;;;4.30;3.80;;;;;;;14.37;57.18;101989.28;843366;23;1343;-90
2022/08/07 00:15:32;;;;;;;5.28;3.90;;;;;;;14.43;57.34;102001.72;843499;23;1268;-90
2022/08/07 00:15:53;;;;;;;6.30;3.70;;;;;;;14.42;57.48;101994.69;839076;23;1285;-90
2022/08/07 00:16:15;;;;;;;5.35;3.65;;;;;;;14.38;57.63;101992.81;843329;23;1228;-90
2022/08/07 00:16:36;;;;;;;5.40;3.90;;;;;;;14.41;57.33;101995.53;847972;23;1243;-90
2022/08/07 00:17:01;;;;;;;4.40;4.00;;;;;;;14.38;57.63;101987.56;843623;23;1250;-90
2022/08/07 00:17:22;;;;;;;4.40;4.00;;;;;;;14.44;57.58;101998.25;847197;23;1359;-90
2022/08/07 00:17:43;;;;;;;4.30;3.90;;;;;;;14.44;57.70;101994.75;851490;23;1258;-90
2022/08/07 00:18:04;;;;;;;3.97;3.67;;;;;;;14.41;57.33;101990.28;847651;23;1187;-90
2022/08/07 00:18:28;;;;;;;4.10;3.70;;;;;;;14.43;57.48;101991.22;851193;23;1267;-90
2022/08/07 00:18:48;;;;;;;4.68;3.83;;;;;;;14.41;57.54;101982.41;851837;23;1280;-90
2022/08/07 00:19:09;;;;;;;4.35;3.80;;;;;;;14.44;57.46;101993.00;839469;23;1103;-90
2022/08/07 00:19:32;;;;;;;3.90;3.50;;;;;;;14.38;57.38;101972.69;847515;23;1314;-90
2022/08/07 00:19:53;;;;;;;4.28;3.50;;;;;;;14.45;57.42;101989.50;847212;23;1952;-90
2022/08/07 00:20:13;;;;;;;5.32;3.60;;;;;;;14.42;57.38;101988.53;843503;23;1184;-90
2022/08/07 00:20:36;;;;;;;6.22;4.05;;;;;;;14.43;57.39;101990.34;847658;23;1071;-90
2022/08/07 00:20:59;;;;;;;5.88;3.83;;;;;;;14.42;57.40;101992.06;839253;23;1223;-90
2022/08/07 00:21:20;;;;;;;6.78;3.88;;;;;;;14.41;57.13;101992.00;843486;23;1393;-90
2022/08/07 00:21:42;;;;;;;6.10;3.80;;;;;;;14.36;57.52;101984.88;851185;23;1396;-90
2022/08/07 00:22:03;;;;;;;5.80;3.78;;;;;;;14.38;57.30;101987.56;851406;23;1317;-90
2022/08/07 00:22:24;;;;;;;10.23;3.83;;;;;;;14.36;57.54;101987.50;850644;23;1337;-90
2022/08/07 00:22:45;;;;;;;10.70;3.80;;;;;;;14.38;57.45;101982.31;847495;23;1203;-90
2022/08/07 00:23:06;;;;;;;11.95;3.85;;;;;;;14.38;57.62;101993.69;847578;23;1451;-90
2022/08/07 00:23:28;;;;;;;6.87;4.27;;;;;;;14.37;57.54;101985.75;847910;23;1338;-90
2022/08/07 00:23:49;;;;;;;6.40;4.40;;;;;;;14.40;57.74;101996.38;847517;23;1396;-90
2022/08/07 00:24:10;;;;;;;4.75;4.35;;;;;;;14.37;57.83;101986.66;838786;23;1208;-90
2022/08/07 00:24:31;;;;;;;3.90;3.60;;;;;;;14.37;57.84;101984.03;838878;23;1312;-90
2022/08/07 00:25:08;;;;;;;3.58;3.38;;;;;;;14.37;57.65;101984.03;847344;23;1090;-90
2022/08/07 00:25:29;;;;;;;3.80;3.50;;;;;;;14.33;57.65;101987.41;847778;23;1431;-90
2022/08/07 00:25:50;;;;;;;4.68;3.67;;;;;;;14.28;57.54;101980.22;850909;23;1120;-90
2022/08/07 00:26:11;;;;;;;4.82;3.70;;;;;;;14.28;57.56;101982.84;839106;23;1370;-90
2022/08/07 00:26:32;;;;;;;5.30;3.50;;;;;;;14.28;57.35;101985.47;840040;23;1148;-90
2022/08/07 00:26:53;;;;;;;4.20;3.70;;;;;;;14.27;57.32;101988.94;843619;23;1246;-90
2022/08/07 00:27:16;;;;;;;4.07;3.60;;;;;;;14.24;57.69;101981.84;843207;23;1179;-90
2022/08/07 00:27:37;;;;;;;3.83;3.53;;;;;;;14.22;57.41;101984.44;846572;23;1350;-89
2022/08/07 00:27:58;;;;;;;4.00;3.60;;;;;;;14.20;57.59;101983.47;846791;23;1159;-89
2022/08/07 00:28:20;;;;;;;5.10;3.85;;;;;;;14.16;57.74;101976.38;847183;23;1224;-90
2022/08/07 00:28:42;;;;;;;5.22;3.63;;;;;;;14.20;57.49;101983.47;853245;23;1242;-90
2022/08/07 00:29:03;;;;;;;5.90;3.60;;;;;;;14.16;57.75;101979.00;847840;23;1343;-90
2022/08/07 00:29:24;;;;;;;5.53;3.83;;;;;;;14.16;57.80;101988.59;843496;23;1249;-90
2022/08/07 00:29:45;;;;;;;7.15;3.90;;;;;;;14.18;58.04;101979.94;847880;23;1268;-90
2022/08/07 00:30:06;;;;;;;6.18;4.00;;;;;;;14.10;58.04;101979.66;839620;23;1190;-90
2022/08/07 00:30:28;;;;;;;5.70;3.85;;;;;;;14.11;57.90;101972.69;839559;23;1248;-91
2022/08/07 00:30:49;;;;;;;4.22;3.83;;;;;;;14.13;58.12;101983.25;843883;23;1199;-90
2022/08/07 00:31:10;;;;;;;4.10;3.70;;;;;;;14.11;58.13;101977.94;843115;23;1310;-90
2022/08/07 00:31:31;;;;;;;4.00;3.60;;;;;;;14.16;58.06;101985.97;847626;23;1195;-90
2022/08/07 00:31:53;;;;;;;3.85;3.50;;;;;;;14.13;58.19;101971.00;846989;23;1161;-90
2022/08/07 00:32:14;;;;;;;3.97;3.38;;;;;;;14.16;58.14;101981.63;843265;23;1276;-90
2022/08/07 00:32:35;;;;;;;4.82;3.60;;;;;;;14.16;58.21;101980.72;843785;23;1273;-90
2022/08/07 00:32:57;;;;;;;4.28;3.67;;;;;;;14.18;58.14;101979.94;839708;23;1170;-90
2022/08/07 00:33:18;;;;;;;4.05;3.65;;;;;;;14.17;58.20;101983.41;843816;23;1380;-91
2022/08/07 00:33:40;;;;;;;3.80;3.50;;;;;;;14.18;58.00;101989.53;843729;23;1232;-90
2022/08/07 00:34:00;;;;;;;4.10;3.38;;;;;;;14.11;58.05;101986.72;843661;23;1212;-90
2022/08/07 00:34:22;;;;;;;3.88;3.40;;;;;;;14.10;58.17;101982.28;851705;23;1295;-90
2022/08/07 00:34:47;;;;;;;3.97;3.40;;;;;;;14.11;58.32;101980.56;847595;23;1184;-90
2022/08/07 00:35:08;;;;;;;4.00;3.60;;;;;;;14.10;58.25;101981.38;847565;23;1164;-90
2022/08/07 00:35:29;;;;;;;4.10;3.70;;;;;;;14.10;58.09;101981.38;848094;23;1180;-90
2022/08/07 00:35:50;;;;;;;4.32;3.90;;;;;;;14.09;58.46;101979.59;847678;23;1200;-90
2022/08/07 00:36:11;;;;;;;4.38;3.97;;;;;;;14.07;58.28;101973.41;851303;23;1188;-90
2022/08/07 00:36:32;;;;;;;4.30;3.90;;;;;;;14.06;58.06;101971.59;839524;23;1205;-90
2022/08/07 00:36:53;;;;;;;4.10;3.70;;;;;;;14.04;58.29;101975.91;847183;23;1392;-90
2022/08/07 00:37:16;;;;;;;4.30;3.60;;;;;;;14.00;58.22;101969.69;847926;23;1461;-90
2022/08/07 00:37:38;;;;;;;3.92;3.53;;;;;;;14.06;58.25;101988.25;851353;23;1223;-90
2022/08/07 00:37:58;;;;;;;4.30;3.50;;;;;;;14.00;58.39;101963.56;847643;23;1267;-90
2022/08/07 00:38:19;;;;;;;3.90;3.50;;;;;;;14.00;58.28;101971.44;843671;23;1190;-90
2022/08/07 00:38:40;;;;;;;3.92;3.53;;;;;;;13.97;58.45;101965.22;839757;23;1187;-90
2022/08/07 00:39:02;;;;;;;4.00;3.70;;;;;;;14.04;58.44;101975.91;847613;23;1260;-90
2022/08/07 00:39:23;;;;;;;4.10;3.70;;;;;;;14.03;58.53;101984.63;843039;23;1289;-90
2022/08/07 00:39:44;;;;;;;4.10;3.70;;;;;;;14.01;58.70;101965.34;847252;23;1333;-90
2022/08/07 00:40:05;;;;;;;4.20;3.80;;;;;;;14.04;58.58;101979.44;851428;23;1964;-90
2022/08/07 00:40:27;;;;;;;4.05;3.75;;;;;;;13.95;58.44;101969.53;843462;23;1180;-90
2022/08/07 00:40:49;;;;;;;4.00;3.70;;;;;;;13.96;58.58;101970.44;835769;23;1301;-90
2022/08/07 00:41:10;;;;;;;4.10;3.70;;;;;;;13.96;58.64;101975.69;846795;23;1255;-90
2022/08/07 00:41:32;;;;;;;4.03;3.70;;;;;;;14.00;58.47;101985.41;847012;23;1372;-90
2022/08/07 00:41:56;;;;;;;3.85;3.55;;;;;;;13.96;58.44;101973.94;847419;23;1230;-90
2022/08/07 00:42:17;;;;;;;3.97;3.65;;;;;;;13.93;58.52;101973.84;851922;23;1308;-90
2022/08/07 00:42:38;;;;;;;4.10;3.70;;;;;;;13.92;58.50;101979.94;839514;23;1346;-90
2022/08/07 00:42:59;;;;;;;4.25;3.85;;;;;;;13.92;58.61;101969.44;847781;23;1363;-90
2022/08/07 00:43:20;;;;;;;4.07;3.70;;;;;;;13.94;58.65;101969.47;856223;23;1207;-90
2022/08/07 00:43:42;;;;;;;4.10;3.70;;;;;;;14.00;58.88;101981.94;839467;23;1314;-90
2022/08/07 00:44:04;;;;;;;4.38;3.58;;;;;;;13.97;59.00;101983.59;843422;23;1332;-91
2022/08/07 00:44:25;;;;;;;4.00;3.60;;;;;;;13.99;58.92;101983.66;847883;23;1204;-90
2022/08/07 00:44:46;;;;;;;3.70;3.40;;;;;;;13.98;59.06;101984.50;846775;23;1368;-90
2022/08/07 00:45:09;;;;;;;3.85;3.55;;;;;;;14.01;59.00;101981.94;851256;23;1181;-90
2022/08/07 00:45:29;;;;;;;4.10;3.70;;;;;;;13.98;59.26;101974.00;843467;23;1212;-90
2022/08/07 00:45:50;;;;;;;4.30;3.90;;;;;;;13.96;58.89;101979.19;843569;23;1230;-90
2022/08/07 00:46:11;;;;;;;4.30;3.90;;;;;;;14.03;59.47;101984.63;843663;23;1306;-90
2022/08/07 00:46:33;;;;;;;4.30;3.90;;;;;;;14.00;59.28;101976.69;839686;23;1264;-90
2022/08/07 00:46:54;;;;;;;4.20;3.80;;;;;;;14.02;59.12;101982.88;847480;23;1138;-91
2022/08/07 00:47:15;;;;;;;4.20;3.75;;;;;;;14.01;59.20;101971.47;855193;23;1231;-90
2022/08/07 00:47:36;;;;;;;3.92;3.53;;;;;;;13.97;59.32;101973.09;851825;23;1347;-90
2022/08/07 00:47:57;;;;;;;3.88;3.50;;;;;;;14.06;59.05;101979.47;843652;23;1274;-90
2022/08/07 00:48:18;;;;;;;3.88;3.55;;;;;;;13.99;59.04;101981.03;847543;23;1382;-90
2022/08/07 00:48:39;;;;;;;4.30;3.90;;;;;;;14.02;59.05;101978.47;843581;23;1186;-89
2022/08/07 00:49:01;;;;;;;4.28;3.90;;;;;;;14.00;58.86;101977.53;839275;23;1267;-90
2022/08/07 00:49:22;;;;;;;5.95;4.10;;;;;;;14.01;58.89;101981.06;847901;23;1315;-91
2022/08/07 00:49:43;;;;;;;6.30;4.20;;;;;;;14.03;58.74;101984.63;843035;23;1230;-90
2022/08/07 00:50:06;;;;;;;6.55;4.30;;;;;;;13.98;58.97;101980.16;847472;23;1189;-90
2022/08/07 00:50:27;;;;;;;5.10;4.10;;;;;;;14.01;58.83;101975.84;851350;23;1314;-90
2022/08/07 00:50:48;;;;;;;5.50;4.00;;;;;;;13.95;59.42;101972.16;847603;23;1129;-90
2022/08/07 00:51:09;;;;;;;6.57;3.90;;;;;;;14.02;59.23;101986.34;838723;23;1240;-90
2022/08/07 00:51:30;;;;;;;5.75;3.95;;;;;;;14.04;59.17;101983.78;847355;23;1248;-90
2022/08/07 00:51:53;;;;;;;5.22;3.90;;;;;;;14.07;59.21;101989.16;846639;23;1204;-90
2022/08/07 00:52:14;;;;;;;4.40;3.95;;;;;;;14.01;59.31;101981.06;844253;23;1364;-90
2022/08/07 00:52:35;;;;;;;4.88;4.00;;;;;;;14.03;59.34;101976.75;847689;23;1322;-90
2022/08/07 00:52:56;;;;;;;4.85;4.13;;;;;;;14.05;59.17;101986.47;847361;23;1287;-90
2022/08/07 00:53:19;;;;;;;5.27;4.20;;;;;;;14.03;59.26;101982.00;843485;23;1183;-90
2022/08/07 00:53:40;;;;;;;4.78;3.97;;;;;;;14.02;59.45;101977.59;843754;23;1240;-90
2022/08/07 00:54:01;;;;;;;5.80;3.80;;;;;;;14.02;59.20;101977.59;851716;23;1312;-90
2022/08/07 00:54:22;;;;;;;5.55;3.80;;;;;;;13.97;59.44;101969.59;846907;23;1227;-90
2022/08/07 00:54:43;;;;;;;5.68;3.95;;;;;;;13.99;59.45;101970.53;847555;23;1324;-90
2022/08/07 00:55:05;;;;;;;4.53;4.10;;;;;;;14.02;59.44;101980.25;846975;23;1314;-90
2022/08/07 00:55:28;;;;;;;4.50;4.10;;;;;;;14.04;59.29;101981.16;839570;23;1112;-90
2022/08/07 00:55:49;;;;;;;4.80;4.00;;;;;;;13.98;59.30;101971.38;843499;23;1232;-90
2022/08/07 00:56:11;;;;;;;5.35;3.90;;;;;;;14.04;59.06;101986.41;843152;23;1219;-90
2022/08/07 00:56:33;;;;;;;4.53;3.88;;;;;;;14.06;59.11;101987.34;843685;23;1231;-90
2022/08/07 00:56:54;;;;;;;4.40;3.90;;;;;;;14.02;59.37;101977.59;843288;23;1163;-90
2022/08/07 00:57:18;;;;;;;4.40;4.00;;;;;;;14.00;59.17;101974.91;847417;23;1305;-91
2022/08/07 00:57:39;;;;;;;6.30;4.30;;;;;;;14.01;59.21;101974.09;851806;23;1289;-90
2022/08/07 00:57:59;;;;;;;6.47;4.30;;;;;;;14.03;59.23;101974.13;843742;23;1261;-90
2022/08/07 00:58:21;;;;;;;6.35;4.20;;;;;;;14.00;59.33;101974.06;843317;23;1322;-90
2022/08/07 00:58:43;;;;;;;4.40;4.00;;;;;;;14.01;58.96;101979.31;839780;23;1200;-90
2022/08/07 00:59:05;;;;;;;4.30;3.90;;;;;;;14.00;59.21;101976.69;843550;23;1226;-90
2022/08/07 00:59:26;;;;;;;4.43;4.03;;;;;;;14.04;59.04;101992.56;843293;23;1246;-91
2022/08/07 00:59:47;;;;;;;4.40;4.00;;;;;;;13.98;59.46;101974.91;847144;23;1945;-89
2022/08/07 01:00:09;;;;;;;5.30;4.25;;;;;;;13.98;59.10;101977.53;847288;23;1234;-90
2022/08/07 01:00:30;;;;;;;4.82;4.22;;;;;;;13.93;59.32;101971.22;843122;23;1255;-90
2022/08/07 01:00:52;;;;;;;4.93;4.28;;;;;;;13.95;59.18;101972.16;839349;23;1182;-89
2022/08/07 01:01:14;;;;;;;4.63;4.22;;;;;;;13.94;59.32;101974.72;850972;23;1188;-90
2022/08/07 01:01:35;;;;;;;4.88;4.47;;;;;;;13.95;59.39;101977.41;851615;23;1262;-90
2022/08/07 01:01:56;;;;;;;5.10;4.60;;;;;;;13.96;59.34;101981.81;847454;23;1337;-90
2022/08/07 01:02:18;;;;;;;5.00;4.50;;;;;;;13.96;59.17;101981.81;851720;23;1367;-90
2022/08/07 01:02:39;;;;;;;6.03;4.60;;;;;;;13.93;59.47;101986.97;843426;23;1339;-90
2022/08/07 01:03:00;;;;;;;6.07;4.50;;;;;;;13.94;59.42;101980.88;843388;23;1295;-90
2022/08/07 01:03:21;;;;;;;6.80;4.80;;;;;;;13.93;59.37;101976.47;835332;23;1195;-90
2022/08/07 01:03:42;;;;;;;5.07;4.57;;;;;;;13.90;59.30;101972.84;847770;23;1020;-90
2022/08/07 01:04:07;;;;;;;4.95;4.50;;;;;;;13.89;59.26;101969.31;843604;23;1482;-90
2022/08/07 01:04:28;;;;;;;4.93;4.47;;;;;;;13.93;59.34;101983.44;847173;23;1329;-90
2022/08/07 01:04:49;;;;;;;5.20;4.45;;;;;;;13.93;59.12;101986.97;847645;23;1188;-90
2022/08/07 01:05:11;;;;;;;5.30;4.30;;;;;;;13.96;59.07;101984.44;851443;23;1271;-90
2022/08/07 01:05:32;;;;;;;4.85;4.18;;;;;;;13.90;59.17;101981.59;843628;23;1294;-90
2022/08/07 01:05:55;;;;;;;5.05;3.88;;;;;;;13.88;59.13;101972.78;847300;23;1226;-90
2022/08/07 01:06:17;;;;;;;5.00;4.00;;;;;;;13.89;59.27;101979.81;843334;23;1447;-90
2022/08/07 01:06:38;;;;;;;4.88;4.40;;;;;;;13.89;59.23;101977.19;839273;23;1267;-90
2022/08/07 01:07:00;;;;;;;5.85;4.72;;;;;;;13.88;59.23;101980.66;839603;23;1295;-90
2022/08/07 01:07:21;;;;;;;6.47;4.60;;;;;;;13.86;58.89;101990.22;843218;23;1304;-90
2022/08/07 01:07:43;;;;;;;5.50;4.18;;;;;;;13.82;59.25;101980.44;839657;23;1232;-90
2022/08/07 01:08:04;;;;;;;4.57;3.90;;;;;;;13.81;59.25;101974.31;839262;23;1346;-90
2022/08/07 01:08:25;;;;;;;4.55;4.15;;;;;;;13.81;59.65;101979.56;847824;23;1087;-90
2022/08/07 01:08:47;;;;;;;4.90;4.40;;;;;;;13.84;59.44;101978.78;855655;23;1266;-90
2022/08/07 01:09:08;;;;;;;4.78;4.28;;;;;;;13.80;59.79;101975.16;847402;23;1183;-90
2022/08/07 01:09:30;;;;;;;5.50;4.32;;;;;;;13.80;59.31;101979.50;843301;23;1177;-90
2022/08/07 01:09:51;;;;;;;4.80;4.10;;;;;;;13.80;59.60;101982.13;843232;23;1478;-90
2022/08/07 01:10:47;;;;;;;5.30;4.30;;;;;;;13.84;59.72;101989.28;835199;23;1256;-90
2022/08/07 01:11:08;;;;;;;4.95;4.20;;;;;;;13.74;59.31;101969.69;845927;23;1232;-90
2022/08/07 01:11:30;;;;;;;5.95;4.10;;;;;;;13.77;59.51;101982.03;848212;23;1396;-90
2022/08/07 01:11:51;;;;;;;5.50;4.00;;;;;;;13.74;59.42;101979.28;835586;23;1332;-90
2022/08/07 01:12:14;;;;;;;4.75;3.85;;;;;;;13.73;59.29;101972.25;851576;23;1245;-90
2022/08/07 01:12:36;;;;;;;4.50;4.10;;;;;;;13.77;59.33;101982.91;843280;23;1291;-90
2022/08/07 01:12:57;;;;;;;4.60;4.20;;;;;;;13.69;59.67;101968.63;835416;23;1168;-90
2022/08/07 01:13:21;;;;;;;4.65;4.15;;;;;;;13.69;59.33;101974.78;847028;23;1220;-90
2022/08/07 01:13:42;;;;;;;4.57;4.18;;;;;;;13.66;59.40;101972.03;843832;23;1360;-90
2022/08/07 01:14:03;;;;;;;4.70;4.20;;;;;;;13.69;59.45;101980.03;842048;23;1205;-89
2022/08/07 01:14:25;;;;;;;5.30;4.18;;;;;;;13.67;59.51;101973.84;843650;23;1336;-90
2022/08/07 01:14:47;;;;;;;5.03;3.90;;;;;;;13.71;59.38;101978.34;843435;23;1195;-90
2022/08/07 01:15:08;;;;;;;4.70;3.78;;;;;;;13.64;59.62;101970.22;842911;23;1280;-90
2022/08/07 01:15:53;;;;;;;4.30;3.90;;;;;;;13.71;59.65;101983.59;842910;23;1248;-90
2022/08/07 01:16:15;;;;;;;5.10;4.10;;;;;;;13.67;59.69;101979.09;843942;23;1260;-90
2022/08/07 01:16:36;;;;;;;5.30;4.07;;;;;;;13.62;59.58;101972.78;847984;23;1391;-90
2022/08/07 01:16:58;;;;;;;4.60;4.00;;;;;;;13.66;59.75;101979.91;851932;23;1273;-90
2022/08/07 01:17:22;;;;;;;4.20;3.90;;;;;;;13.63;59.83;101974.56;848010;23;1474;-90
2022/08/07 01:17:43;;;;;;;4.50;4.00;;;;;;;13.63;59.80;101973.69;844119;23;1252;-88
2022/08/07 01:18:05;;;;;;;4.90;4.10;;;;;;;13.59;59.57;101972.69;843884;23;1276;-90
2022/08/07 01:18:28;;;;;;;4.57;3.95;;;;;;;13.61;59.95;101971.00;848256;23;1281;-90
2022/08/07 01:18:49;;;;;;;4.85;3.90;;;;;;;13.54;59.57;101959.41;840191;23;1224;-90
2022/08/07 01:19:11;;;;;;;4.53;3.90;;;;;;;13.64;59.62;101986.84;839696;23;1263;-90
2022/08/07 01:19:33;;;;;;;5.38;4.20;;;;;;;13.59;59.45;101977.94;847774;23;1251;-90
2022/08/07 01:20:01;;;;;;;4.63;4.22;;;;;;;13.61;59.63;101980.59;843818;23;1907;-90
2022/08/07 01:20:32;;;;;;;4.78;4.28;;;;;;;13.55;59.54;101970.78;852323;23;1226;-90
2022/08/07 01:21:14;;;;;;;4.68;4.18;;;;;;;13.58;59.62;101976.13;844320;23;1316;-89
2022/08/07 01:21:35;;;;;;;5.07;4.57;;;;;;;13.51;59.55;101969.78;844069;23;1215;-90
2022/08/07 01:21:56;;;;;;;5.10;4.60;;;;;;;13.57;59.90;101975.25;852235;23;1291;-90
2022/08/07 01:22:22;;;;;;;4.80;4.40;;;;;;;13.53;59.79;101969.84;852167;23;1351;-90
2022/08/07 01:22:43;;;;;;;8.60;4.82;;;;;;;13.49;59.76;101967.94;852359;23;1308;-90
2022/08/07 01:23:05;;;;;;;8.40;4.80;;;;;;;13.54;59.68;101971.63;847645;23;1324;-90
2022/08/07 01:23:28;;;;;;;7.95;4.65;;;;;;;13.56;60.06;101972.56;843920;23;1337;-90
2022/08/07 01:23:50;;;;;;;4.60;4.20;;;;;;;13.46;60.15;101953.00;839739;23;1164;-90
2022/08/07 01:24:12;;;;;;;4.90;4.40;;;;;;;13.55;59.93;101970.78;851571;23;1106;-89
2022/08/07 01:24:34;;;;;;;5.43;4.78;;;;;;;13.52;60.11;101968.06;856053;23;1254;-91
2022/08/07 01:24:56;;;;;;;5.22;4.68;;;;;;;13.53;59.92;101972.47;847541;23;1368;-90
2022/08/07 01:25:18;;;;;;;5.20;4.70;;;;;;;13.54;60.41;101971.63;848106;23;1425;-90
2022/08/07 01:25:39;;;;;;;5.20;4.60;;;;;;;13.55;60.18;101970.78;851122;23;1238;-90
2022/08/07 01:26:01;;;;;;;5.50;4.53;;;;;;;13.47;60.16;101969.63;839448;23;1272;-90
2022/08/07 01:26:23;;;;;;;4.80;4.28;;;;;;;13.53;60.32;101973.34;839987;23;1212;-90
2022/08/07 01:26:44;;;;;;;4.80;4.30;;;;;;;13.52;60.09;101968.06;847913;23;1315;-90
2022/08/07 01:27:05;;;;;;;4.68;4.28;;;;;;;13.51;59.88;101968.91;843254;23;1249;-90
2022/08/07 01:27:27;;;;;;;4.53;4.13;;;;;;;13.54;60.00;101969.88;843493;23;1251;-90
2022/08/07 01:27:49;;;;;;;4.90;4.32;;;;;;;13.52;60.05;101971.56;839640;23;1277;-90
2022/08/07 01:28:10;;;;;;;5.55;4.57;;;;;;;13.53;60.04;101973.34;847402;23;1183;-90
2022/08/07 01:28:32;;;;;;;5.13;4.27;;;;;;;13.55;59.86;101970.78;839419;23;1164;-90
2022/08/07 01:28:54;;;;;;;4.93;4.38;;;;;;;13.55;59.69;101981.28;839114;23;1349;-90
2022/08/07 01:29:17;;;;;;;4.63;4.22;;;;;;;13.52;60.03;101979.44;843403;23;1239;-89
2022/08/07 01:29:38;;;;;;;4.90;4.50;;;;;;;13.52;59.82;101974.19;838954;23;1418;-90
2022/08/07 01:30:01;;;;;;;5.10;4.60;;;;;;;13.51;59.82;101968.91;839340;23;1248;-90
2022/08/07 01:30:25;;;;;;;5.25;4.53;;;;;;;13.50;59.88;101967.09;851373;23;1057;-90
2022/08/07 01:30:48;;;;;;;4.50;4.10;;;;;;;13.51;60.05;101976.78;843680;23;1232;-90
2022/08/07 01:31:10;;;;;;;4.88;4.35;;;;;;;13.52;60.06;101979.44;842876;23;1226;-90
2022/08/07 01:31:32;;;;;;;5.10;4.50;;;;;;;13.49;60.20;101974.09;851832;23;1092;-90
2022/08/07 01:31:55;;;;;;;5.40;4.60;;;;;;;13.56;59.92;101975.19;847632;23;1306;-90
2022/08/07 01:32:16;;;;;;;4.88;4.38;;;;;;;13.48;60.23;101963.53;843586;23;1135;-90
2022/08/07 01:32:40;;;;;;;5.47;4.40;;;;;;;13.45;60.17;101963.44;843458;23;1322;-90
2022/08/07 01:33:01;;;;;;;5.28;4.47;;;;;;;13.47;60.26;101962.69;851351;23;1283;-90
2022/08/07 01:33:24;;;;;;;5.63;4.40;;;;;;;13.45;59.95;101958.22;843411;23;1245;-90
2022/08/07 01:33:47;;;;;;;4.70;4.30;;;;;;;13.46;59.86;101971.34;839785;23;1283;-90
2022/08/07 01:34:11;;;;;;;4.70;4.30;;;;;;;13.46;60.03;101971.34;846926;23;1262;-90
2022/08/07 01:34:35;;;;;;;4.50;4.10;;;;;;;13.40;59.96;101968.53;847743;23;1320;-90
2022/08/07 01:35:02;;;;;;;4.30;3.90;;;;;;;13.38;59.78;101968.47;843466;23;1365;-90
2022/08/07 01:35:24;;;;;;;4.63;4.22;;;;;;;13.36;59.88;101964.91;835354;23;1403;-90
2022/08/07 01:35:45;;;;;;;5.22;4.72;;;;;;;13.41;59.56;101975.56;843066;23;1301;-89
2022/08/07 01:36:08;;;;;;;5.30;4.80;;;;;;;13.33;59.86;101962.16;838996;23;1346;-90
2022/08/07 01:36:31;;;;;;;6.05;5.00;;;;;;;13.35;59.90;101968.38;835433;23;1388;-90
2022/08/07 01:36:54;;;;;;;6.00;4.88;;;;;;;13.31;59.76;101955.97;843377;23;1339;-90
2022/08/07 01:37:18;;;;;;;4.80;4.30;;;;;;;13.32;60.00;101960.38;855771;23;1352;-90
2022/08/07 01:37:40;;;;;;;4.75;4.25;;;;;;;13.28;59.88;101962.00;851912;23;1362;-90
2022/08/07 01:38:02;;;;;;;4.45;4.05;;;;;;;13.28;59.81;101955.88;843507;23;1334;-90
2022/08/07 01:38:23;;;;;;;4.45;4.05;;;;;;;13.27;59.77;101961.97;847446;23;1276;-90
2022/08/07 01:38:44;;;;;;;4.68;4.28;;;;;;;13.29;59.94;101962.91;839418;23;1276;-91
2022/08/07 01:39:13;;;;;;;4.82;4.43;;;;;;;13.28;60.08;101962.00;851321;23;1006;-90
2022/08/07 01:39:39;;;;;;;4.93;4.53;;;;;;;13.27;60.22;101964.59;847059;23;1342;-90
2022/08/07 01:40:05;;;;;;;5.45;4.63;;;;;;;13.32;60.28;101967.38;843204;23;1901;-91
2022/08/07 01:40:29;;;;;;;4.85;4.20;;;;;;;13.23;60.49;101952.19;844202;23;1351;-90
2022/08/07 01:40:58;;;;;;;4.53;4.10;;;;;;;13.21;60.37;101953.88;842973;23;1389;-90
2022/08/07 01:41:21;;;;;;;4.95;4.55;;;;;;;13.26;60.58;101954.91;842708;23;1296;-91
2022/08/07 01:41:44;;;;;;;5.30;4.80;;;;;;;13.28;60.73;101959.38;845214;23;1305;-90
2022/08/07 01:42:06;;;;;;;5.50;5.00;;;;;;;13.30;60.69;101959.44;839635;23;1252;-90
2022/08/07 01:42:28;;;;;;;4.97;4.57;;;;;;;13.25;60.96;101959.28;846320;23;1339;-90
2022/08/07 01:42:50;;;;;;;4.65;4.25;;;;;;;13.32;60.73;101964.75;847538;23;1305;-90
2022/08/07 01:43:11;;;;;;;4.63;4.20;;;;;;;13.26;60.88;101947.03;839305;23;1386;-90
2022/08/07 01:43:32;;;;;;;4.80;4.25;;;;;;;13.34;60.98;101966.56;852189;23;1177;-90
2022/08/07 01:43:54;;;;;;;4.90;4.40;;;;;;;13.36;60.86;101969.25;847296;23;1392;-90
2022/08/07 01:44:15;;;;;;;4.70;4.30;;;;;;;13.32;60.87;101968.25;839296;23;1349;-90
2022/08/07 01:44:37;;;;;;;4.70;4.40;;;;;;;13.29;60.85;101960.28;839802;23;1349;-90
2022/08/07 01:44:58;;;;;;;4.65;4.35;;;;;;;13.29;61.02;101957.66;843391;23;1306;-90
2022/08/07 01:45:20;;;;;;;4.80;4.40;;;;;;;13.32;61.06;101963.00;856180;23;1268;-90